createdAt,value
2022-10-06T00:01:09.694Z,96208.97
2022-10-06T00:03:38.387Z,96200.06
2022-10-06T00:06:05.501Z,96211.41
2022-10-06T00:08:33.420Z,96209.00
2022-10-06T00:11:00.070Z,96205.34
2022-10-06T00:13:27.410Z,96211.84
2022-10-06T00:15:54.552Z,96210.00
2022-10-06T00:18:21.325Z,96209.72
2022-10-06T00:20:57.689Z,96209.88
2022-10-06T00:23:24.725Z,96216.44
2022-10-06T00:25:51.649Z,96210.59
2022-10-06T00:28:18.358Z,96207.38
2022-10-06T00:30:46.431Z,96208.97
2022-10-06T00:33:14.855Z,96204.41
2022-10-06T00:35:42.069Z,96204.41
2022-10-06T00:38:10.799Z,96200.19
2022-10-06T00:40:42.673Z,96200.69
2022-10-06T00:43:28.037Z,96195.97
2022-10-06T00:45:54.656Z,96198.13
2022-10-06T00:48:24.038Z,96189.06
2022-10-06T00:50:54.473Z,96196.13
2022-10-06T00:53:21.949Z,96184.44
2022-10-06T00:55:48.633Z,96179.53
2022-10-06T00:58:16.123Z,96179.38
2022-10-06T01:00:44.276Z,96175.00
2022-10-06T01:03:37.394Z,96168.06
2022-10-06T01:06:05.124Z,96168.56
2022-10-06T01:08:32.700Z,96163.78
2022-10-06T01:10:59.396Z,96167.31
2022-10-06T01:13:29.603Z,96154.75
2022-10-06T01:16:00.047Z,96157.78
2022-10-06T01:18:28.419Z,96144.94
2022-10-06T01:21:02.374Z,96153.88
2022-10-06T01:23:31.090Z,96152.53
2022-10-06T01:25:58.621Z,96153.41
2022-10-06T01:28:26.237Z,96159.69
2022-10-06T01:30:55.740Z,96152.22
2022-10-06T01:33:24.094Z,96152.53
2022-10-06T01:35:52.662Z,96154.50
2022-10-06T01:38:20.171Z,96144.03
2022-10-06T01:40:51.185Z,96153.13
2022-10-06T01:43:18.019Z,96155.94
2022-10-06T01:45:44.766Z,96149.91
2022-10-06T01:48:11.392Z,96150.59
2022-10-06T01:50:40.435Z,96147.03
2022-10-06T01:53:07.466Z,96149.50
2022-10-06T01:55:34.197Z,96151.28
2022-10-06T01:58:01.577Z,96141.06
2022-10-06T02:00:28.520Z,96149.19
2022-10-06T02:02:57.397Z,96150.88
2022-10-06T02:05:26.194Z,96148.97
2022-10-06T02:07:54.215Z,96149.97
2022-10-06T02:10:21.320Z,96149.06
2022-10-06T02:12:52.639Z,96157.28
2022-10-06T02:15:21.583Z,96152.81
2022-10-06T02:17:48.352Z,96152.28
2022-10-06T02:20:15.728Z,96150.88
2022-10-06T02:22:43.819Z,96144.97
2022-10-06T02:25:12.141Z,96147.94
2022-10-06T02:27:39.507Z,96153.97
2022-10-06T02:30:08.077Z,96151.78
2022-10-06T02:32:36.457Z,96146.03
2022-10-06T02:35:03.940Z,96152.94
2022-10-06T02:37:31.155Z,96154.63
2022-10-06T02:40:00.116Z,96159.50
2022-10-06T02:42:27.016Z,96158.97
2022-10-06T02:44:54.197Z,96159.88
2022-10-06T02:47:22.537Z,96152.97
2022-10-06T02:49:49.079Z,96156.78
2022-10-06T02:52:16.908Z,96156.91
2022-10-06T02:54:43.530Z,96152.97
2022-10-06T02:57:10.116Z,96160.38
2022-10-06T02:59:36.719Z,96164.78
2022-10-06T03:02:04.882Z,96155.59
2022-10-06T03:04:31.540Z,96153.38
2022-10-06T03:06:58.084Z,96151.03
2022-10-06T03:09:27.800Z,96150.81
2022-10-06T03:11:55.431Z,96156.78
2022-10-06T03:14:30.668Z,96152.66
2022-10-06T03:16:57.463Z,96154.13
2022-10-06T03:19:26.846Z,96151.63
2022-10-06T03:21:54.045Z,96141.66
2022-10-06T03:24:24.531Z,96149.44
2022-10-06T03:26:55.608Z,96153.84
2022-10-06T03:29:22.271Z,96153.25
2022-10-06T03:31:53.390Z,96146.88
2022-10-06T03:34:20.151Z,96148.09
2022-10-06T03:36:46.774Z,96143.56
2022-10-06T03:39:16.105Z,96142.06
2022-10-06T03:41:43.115Z,96142.78
2022-10-06T03:44:10.034Z,96143.88
2022-10-06T03:46:40.006Z,96146.47
2022-10-06T03:49:07.840Z,96139.41
2022-10-06T03:51:37.328Z,96146.75
2022-10-06T03:54:04.684Z,96140.59
2022-10-06T03:56:34.871Z,96136.09
2022-10-06T03:59:02.714Z,96136.47
2022-10-06T04:01:31.343Z,96140.38
2022-10-06T04:03:58.670Z,96135.50
2022-10-06T04:06:25.938Z,96135.16
2022-10-06T04:08:52.850Z,96133.53
2022-10-06T04:11:21.537Z,96139.31
2022-10-06T04:13:49.204Z,96136.38
2022-10-06T04:16:17.059Z,96129.88
2022-10-06T04:18:45.174Z,96137.16
2022-10-06T04:21:12.868Z,96134.59
2022-10-06T04:23:40.380Z,96129.22
2022-10-06T04:26:10.571Z,96128.69
2022-10-06T04:28:38.260Z,96139.00
2022-10-06T04:31:06.242Z,96132.00
2022-10-06T04:33:34.199Z,96134.28
2022-10-06T04:36:03.909Z,96141.25
2022-10-06T04:38:34.192Z,96140.75
2022-10-06T04:41:05.404Z,96138.38
2022-10-06T04:43:34.606Z,96143.72
2022-10-06T04:46:13.099Z,96145.44
2022-10-06T04:48:52.808Z,96148.97
2022-10-06T04:51:20.981Z,96145.19
2022-10-06T04:53:48.415Z,96149.59
2022-10-06T04:56:17.475Z,96148.41
2022-10-06T04:58:45.713Z,96162.28
2022-10-06T05:01:22.712Z,96154.28
2022-10-06T05:03:50.685Z,96157.84
2022-10-06T05:06:37.015Z,96165.91
2022-10-06T05:09:11.176Z,96166.91
2022-10-06T05:11:40.596Z,96172.75
2022-10-06T05:14:10.568Z,96169.66
2022-10-06T05:16:40.520Z,96165.91
2022-10-06T05:19:08.323Z,96169.84
2022-10-06T05:21:37.725Z,96165.00
2022-10-06T05:24:05.862Z,96166.59
2022-10-06T05:26:34.254Z,96175.00
2022-10-06T05:29:02.880Z,96177.34
2022-10-06T05:31:31.746Z,96172.53
2022-10-06T05:34:00.591Z,96172.75
2022-10-06T05:36:32.630Z,96176.47
2022-10-06T05:39:00.411Z,96173.25
2022-10-06T05:41:32.235Z,96177.16
2022-10-06T05:44:02.021Z,96171.66
2022-10-06T05:46:30.249Z,96180.38
2022-10-06T05:48:59.125Z,96181.97
2022-10-06T05:51:31.442Z,96177.75
2022-10-06T05:54:00.710Z,96182.91
2022-10-06T05:56:30.320Z,96182.22
2022-10-06T05:58:58.122Z,96186.38
2022-10-06T06:01:27.514Z,96184.06
2022-10-06T06:03:59.429Z,96186.66
2022-10-06T06:06:28.803Z,96185.31
2022-10-06T06:09:00.249Z,96197.81
2022-10-06T06:11:28.399Z,96188.78
2022-10-06T06:13:57.870Z,96190.63
2022-10-06T06:16:24.927Z,96192.81
2022-10-06T06:18:51.990Z,96185.03
2022-10-06T06:21:19.010Z,96190.66
2022-10-06T06:23:46.761Z,96197.78
2022-10-06T06:26:23.599Z,96198.31
2022-10-06T06:28:51.784Z,96206.56
2022-10-06T06:31:26.709Z,96208.44
2022-10-06T06:33:56.366Z,96200.63
2022-10-06T06:36:27.271Z,96202.59
2022-10-06T06:38:55.243Z,96211.16
2022-10-06T06:41:23.936Z,96201.53
2022-10-06T06:43:56.504Z,96194.91
2022-10-06T06:46:32.295Z,96196.25
2022-10-06T06:49:06.314Z,96195.00
2022-10-06T06:51:49.813Z,96193.19
2022-10-06T06:54:18.461Z,96190.47
2022-10-06T06:56:48.972Z,96195.72
2022-10-06T06:59:20.425Z,96187.31
2022-10-06T07:01:50.093Z,96194.34
2022-10-06T07:07:12.379Z,96185.00
2022-10-06T07:09:39.084Z,96185.38
2022-10-06T07:12:11.591Z,96184.09
2022-10-06T07:15:02.770Z,96184.56
2022-10-06T07:17:50.229Z,96182.09
2022-10-06T07:20:36.367Z,96176.81
2022-10-06T07:23:22.635Z,96179.97
2022-10-06T07:25:49.317Z,96171.63
2022-10-06T07:28:17.020Z,96163.63
2022-10-06T07:30:44.898Z,96168.53
2022-10-06T07:33:15.476Z,96175.41
2022-10-06T07:35:43.909Z,96177.84
2022-10-06T07:38:11.492Z,96174.66
2022-10-06T07:40:50.484Z,96178.16
2022-10-06T07:43:17.744Z,96180.97
2022-10-06T07:49:00.264Z,96179.94
2022-10-06T07:51:27.391Z,96189.59
2022-10-06T07:53:56.207Z,96179.78
2022-10-06T07:56:27.996Z,96182.38
2022-10-06T07:58:58.597Z,96183.56
2022-10-06T08:01:27.442Z,96172.28
2022-10-06T08:03:54.172Z,96177.50
2022-10-06T08:06:23.602Z,96185.75
2022-10-06T08:08:53.239Z,96182.88
2022-10-06T08:11:21.660Z,96187.28
2022-10-06T08:13:48.504Z,96178.25
2022-10-06T08:16:17.763Z,96180.13
2022-10-06T08:18:48.242Z,96177.72
2022-10-06T08:21:16.359Z,96176.44
2022-10-06T08:23:43.487Z,96175.19
2022-10-06T08:26:10.884Z,96176.53
2022-10-06T08:28:38.078Z,96167.63
2022-10-06T08:31:11.903Z,96157.78
2022-10-06T08:33:39.600Z,96157.06
2022-10-06T08:36:08.736Z,96155.66
2022-10-06T08:38:37.181Z,96164.19
2022-10-06T08:41:16.401Z,96164.81
2022-10-06T08:43:43.758Z,96159.56
2022-10-06T08:46:14.598Z,96159.28
2022-10-06T08:48:41.296Z,96160.16
2022-10-06T08:51:24.031Z,96162.19
2022-10-06T08:54:06.028Z,96163.50
2022-10-06T08:56:35.917Z,96166.84
2022-10-06T08:59:04.388Z,96161.31
2022-10-06T09:01:38.891Z,96164.84
2022-10-06T09:04:07.936Z,96160.59
2022-10-06T09:06:53.072Z,96160.88
2022-10-06T09:09:25.666Z,96164.44
2022-10-06T09:11:58.490Z,96160.34
2022-10-06T09:14:31.024Z,96159.19
2022-10-06T09:17:01.989Z,96150.69
2022-10-06T09:19:37.457Z,96149.53
2022-10-06T09:22:05.192Z,96153.66
2022-10-06T09:24:37.611Z,96152.28
2022-10-06T09:27:16.787Z,96143.41
2022-10-06T09:29:43.367Z,96147.41
2022-10-06T09:32:11.019Z,96147.50
2022-10-06T09:34:40.958Z,96140.75
2022-10-06T09:37:12.880Z,96136.28
2022-10-06T09:39:48.173Z,96138.78
2022-10-06T09:42:19.737Z,96137.72
2022-10-06T09:44:50.909Z,96141.72
2022-10-06T09:47:36.489Z,96137.41
2022-10-06T09:50:12.038Z,96134.63
2022-10-06T09:52:39.300Z,96133.91
2022-10-06T09:55:12.427Z,96125.28
2022-10-06T09:57:39.604Z,96126.31
2022-10-06T10:00:26.924Z,96127.16
2022-10-06T10:03:07.370Z,96123.06
2022-10-06T10:05:36.479Z,96121.56
2022-10-06T10:08:03.142Z,96122.09
2022-10-06T10:10:29.997Z,96120.38
2022-10-06T10:13:00.109Z,96116.66
2022-10-06T10:15:50.084Z,96114.19
2022-10-06T10:18:17.099Z,96122.56
2022-10-06T10:21:05.255Z,96109.94
2022-10-06T10:23:32.863Z,96113.50
2022-10-06T10:26:08.483Z,96100.25
2022-10-06T10:28:42.792Z,96109.94
2022-10-06T10:31:09.563Z,96111.66
2022-10-06T10:33:49.700Z,96107.94
2022-10-06T10:36:33.379Z,96102.75
2022-10-06T10:39:01.449Z,96095.97
2022-10-06T10:41:32.577Z,96099.91
2022-10-06T10:44:10.061Z,96088.75
2022-10-06T10:46:42.527Z,96091.41
2022-10-06T10:49:13.647Z,96082.69
2022-10-06T10:51:43.085Z,96080.75
2022-10-06T10:54:21.382Z,96075.00
2022-10-06T10:56:49.728Z,96076.75
2022-10-06T10:59:26.179Z,96078.63
2022-10-06T11:01:52.811Z,96073.56
2022-10-06T11:04:20.492Z,96074.00
2022-10-06T11:07:02.117Z,96072.63
2022-10-06T11:09:47.186Z,96064.91
2022-10-06T11:12:33.505Z,96061.22
2022-10-06T11:15:03.421Z,96056.63
2022-10-06T11:17:45.577Z,96060.78
2022-10-06T11:20:27.760Z,96050.78
2022-10-06T11:22:56.908Z,96049.75
2022-10-06T11:25:36.715Z,96054.56
2022-10-06T11:28:06.073Z,96052.66
2022-10-06T11:30:36.936Z,96049.25
2022-10-06T11:33:24.796Z,96037.56
2022-10-06T11:35:51.752Z,96041.13
2022-10-06T11:38:35.922Z,96033.16
2022-10-06T11:41:17.496Z,96030.69
2022-10-06T11:43:51.818Z,96022.38
2022-10-06T11:46:35.568Z,96020.06
2022-10-06T11:49:21.228Z,96018.34
2022-10-06T11:51:47.765Z,96021.00
2022-10-06T11:54:33.138Z,96023.06
2022-10-06T11:56:59.832Z,96002.56
2022-10-06T11:59:27.741Z,96003.84
2022-10-06T12:02:00.559Z,96010.63
2022-10-06T12:04:27.604Z,96004.78
2022-10-06T12:06:55.875Z,96006.59
2022-10-06T12:09:28.748Z,96013.31
2022-10-06T12:11:56.486Z,96002.25
2022-10-06T12:16:00.143Z,95999.19
2022-10-06T12:17:23.836Z,95994.88
2022-10-06T12:19:53.797Z,95988.72
2022-10-06T12:22:31.019Z,95988.22
2022-10-06T12:25:02.997Z,95983.81
2022-10-06T12:27:48.109Z,95977.34
2022-10-06T12:30:27.928Z,95981.16
2022-10-06T12:32:55.954Z,95981.56
2022-10-06T12:35:24.733Z,95975.47
2022-10-06T12:37:54.429Z,95982.94
2022-10-06T12:40:47.008Z,95983.97
2022-10-06T12:43:17.432Z,95977.50
2022-10-06T12:45:47.192Z,95972.78
2022-10-06T12:48:37.200Z,95974.81
2022-10-06T12:51:06.520Z,95969.97
2022-10-06T12:53:39.491Z,95967.66
2022-10-06T12:56:12.215Z,95970.38
2022-10-06T12:58:39.663Z,95961.34
2022-10-06T13:01:09.578Z,95957.34
2022-10-06T13:03:36.996Z,95954.13
2022-10-06T13:06:07.829Z,95960.13
2022-10-06T13:08:38.413Z,95947.63
2022-10-06T13:11:22.238Z,95954.47
2022-10-06T13:13:50.150Z,95953.50
2022-10-06T13:16:21.832Z,95954.53
2022-10-06T13:18:49.254Z,95952.25
2022-10-06T13:21:16.511Z,95954.72
2022-10-06T13:23:45.505Z,95955.31
2022-10-06T13:26:20.230Z,95949.50
2022-10-06T13:28:48.090Z,95949.06
2022-10-06T13:31:14.776Z,95954.84
2022-10-06T13:33:42.389Z,95950.31
2022-10-06T13:36:10.942Z,95951.63
2022-10-06T13:38:38.040Z,95949.91
2022-10-06T13:41:06.317Z,95953.50
2022-10-06T13:43:39.714Z,95953.97
2022-10-06T13:46:07.869Z,95948.88
2022-10-06T13:48:34.710Z,95951.47
2022-10-06T13:51:03.492Z,95950.28
2022-10-06T13:53:31.297Z,95960.91
2022-10-06T13:55:58.574Z,95955.22
2022-10-06T13:58:27.707Z,95956.16
2022-10-06T14:00:56.254Z,95948.94
2022-10-06T14:03:24.505Z,95953.88
2022-10-06T14:05:51.916Z,95950.97
2022-10-06T14:08:26.886Z,95943.91
2022-10-06T14:10:55.461Z,95951.66
2022-10-06T14:13:26.539Z,95943.59
2022-10-06T14:16:02.008Z,95948.06
2022-10-06T14:18:42.966Z,95947.06
2022-10-06T14:21:19.930Z,95948.66
2022-10-06T14:23:53.083Z,95958.66
2022-10-06T14:26:25.181Z,95949.88
2022-10-06T14:28:53.066Z,95950.06
2022-10-06T14:31:20.249Z,95954.81
2022-10-06T14:33:48.025Z,95957.25
2022-10-06T14:36:19.489Z,95958.72
2022-10-06T14:38:47.082Z,95956.06
2022-10-06T14:41:18.767Z,95960.31
2022-10-06T14:43:48.556Z,95962.59
2022-10-06T14:46:15.650Z,95953.31
2022-10-06T14:48:43.612Z,95956.03
2022-10-06T14:51:10.555Z,95964.28
2022-10-06T14:53:39.435Z,95959.75
2022-10-06T14:56:10.722Z,95952.25
2022-10-06T14:58:38.778Z,95967.53
2022-10-06T15:01:06.409Z,95980.09
2022-10-06T15:03:33.584Z,95971.94
2022-10-06T15:06:23.058Z,95968.53
2022-10-06T15:08:51.075Z,95971.28
2022-10-06T15:11:18.905Z,95970.25
2022-10-06T15:13:46.204Z,95969.63
2022-10-06T15:16:13.716Z,95970.47
2022-10-06T15:18:42.845Z,95973.38
2022-10-06T15:21:10.396Z,95973.34
2022-10-06T15:23:37.652Z,95972.31
2022-10-06T15:26:23.304Z,95968.13
2022-10-06T15:29:03.262Z,95962.38
2022-10-06T15:31:34.619Z,95977.25
2022-10-06T15:34:02.374Z,95965.06
2022-10-06T15:36:30.414Z,95967.22
2022-10-06T15:38:58.331Z,95967.66
2022-10-06T15:41:25.398Z,95964.31
2022-10-06T15:43:55.920Z,95956.28
2022-10-06T15:46:26.328Z,95965.78
2022-10-06T15:48:53.746Z,95965.25
2022-10-06T15:51:22.033Z,95961.59
2022-10-06T15:53:49.442Z,95963.91
2022-10-06T15:56:17.398Z,95967.25
2022-10-06T15:58:45.058Z,95960.81
2022-10-06T16:01:28.417Z,95956.09
2022-10-06T16:03:55.330Z,95959.34
2022-10-06T16:06:40.542Z,95966.84
2022-10-06T16:09:08.744Z,95957.22
2022-10-06T16:11:35.622Z,95969.69
2022-10-06T16:14:02.370Z,95962.50
2022-10-06T16:16:29.120Z,95967.34
2022-10-06T16:18:55.756Z,95970.66
2022-10-06T16:21:23.758Z,95972.41
2022-10-06T16:23:53.950Z,95970.44
2022-10-06T16:26:20.905Z,95964.81
2022-10-06T16:28:55.314Z,95975.13
2022-10-06T16:31:22.802Z,95969.34
2022-10-06T16:33:50.629Z,95974.63
2022-10-06T16:36:17.792Z,95970.69
2022-10-06T16:38:44.560Z,95960.78
2022-10-06T16:41:11.534Z,95961.13
2022-10-06T16:43:41.923Z,95966.63
2022-10-06T16:46:19.160Z,95969.75
2022-10-06T16:48:46.407Z,95977.50
2022-10-06T16:51:14.798Z,95978.88
2022-10-06T16:53:42.986Z,95981.81
2022-10-06T16:56:13.513Z,95981.72
2022-10-06T16:58:44.202Z,95983.06
2022-10-06T17:01:11.825Z,95980.78
2022-10-06T17:03:38.937Z,95992.28
2022-10-06T17:06:07.252Z,95985.06
2022-10-06T17:08:34.179Z,95987.38
2022-10-06T17:11:01.855Z,95988.41
2022-10-06T17:13:28.627Z,95989.09
2022-10-06T17:16:15.850Z,95995.50
2022-10-06T17:18:43.639Z,95988.00
2022-10-06T17:21:32.111Z,95990.84
2022-10-06T17:24:00.456Z,95991.41
2022-10-06T17:26:28.636Z,95996.41
2022-10-06T17:28:57.189Z,96001.44
2022-10-06T17:31:25.033Z,96000.41
2022-10-06T17:33:51.667Z,95998.69
2022-10-06T17:36:22.052Z,95995.94
2022-10-06T17:38:53.093Z,96000.41
2022-10-06T17:41:21.000Z,95998.13
2022-10-06T17:43:50.633Z,96000.31
2022-10-06T17:46:20.166Z,96001.72
2022-10-06T17:48:51.366Z,95997.94
2022-10-06T17:51:19.427Z,96005.31
2022-10-06T17:53:47.368Z,96011.69
2022-10-06T17:56:15.496Z,96007.38
2022-10-06T17:58:42.895Z,96009.34
2022-10-06T18:01:13.656Z,96012.84
2022-10-06T18:03:43.876Z,96012.75
2022-10-06T18:06:11.729Z,96011.94
2022-10-06T18:08:39.187Z,96014.09
2022-10-06T18:11:24.571Z,96017.72
2022-10-06T18:13:51.158Z,96019.19
2022-10-06T18:16:24.567Z,96031.47
2022-10-06T18:18:51.967Z,96020.81
2022-10-06T18:21:19.970Z,96023.50
2022-10-06T18:23:47.322Z,96021.75
2022-10-06T18:26:17.062Z,96022.72
2022-10-06T18:28:47.711Z,96030.56
2022-10-06T18:31:15.334Z,96029.69
2022-10-06T18:36:06.687Z,96027.63
2022-10-06T18:36:29.451Z,96029.19
2022-10-06T18:39:00.363Z,96026.03
2022-10-06T18:41:28.277Z,96026.19
2022-10-06T18:43:55.451Z,96029.91
2022-10-06T18:46:41.343Z,96032.16
2022-10-06T18:49:15.873Z,96030.81
2022-10-06T18:51:43.698Z,96030.66
2022-10-06T18:54:15.353Z,96033.84
2022-10-06T18:56:42.651Z,96039.19
2022-10-06T18:59:12.281Z,96041.69
2022-10-06T19:01:40.041Z,96050.94
2022-10-06T19:04:09.884Z,96045.03
2022-10-06T19:06:38.021Z,96053.13
2022-10-06T19:09:06.321Z,96050.81
2022-10-06T19:11:48.587Z,96048.84
2022-10-06T19:14:16.566Z,96053.25
2022-10-06T19:16:43.471Z,96063.69
2022-10-06T19:19:12.349Z,96061.66
2022-10-06T19:21:40.807Z,96057.06
2022-10-06T19:24:08.796Z,96055.28
2022-10-06T19:26:36.216Z,96059.22
2022-10-06T19:29:04.119Z,96053.56
2022-10-06T19:31:31.044Z,96050.75
2022-10-06T19:34:01.713Z,96057.94
2022-10-06T19:36:30.354Z,96052.72
2022-10-06T19:38:58.516Z,96063.97
2022-10-06T19:41:43.452Z,96064.75
2022-10-06T19:44:10.025Z,96063.69
2022-10-06T19:46:37.679Z,96068.22
2022-10-06T19:49:05.982Z,96069.84
2022-10-06T19:51:34.225Z,96068.22
2022-10-06T19:54:02.654Z,96068.31
2022-10-06T19:56:30.712Z,96063.66
2022-10-06T19:58:58.541Z,96073.59
2022-10-06T20:01:26.783Z,96074.00
2022-10-06T20:03:53.748Z,96074.69
2022-10-06T20:06:20.844Z,96065.59
2022-10-06T20:08:47.442Z,96073.47
2022-10-06T20:11:15.517Z,96070.63
2022-10-06T20:13:42.855Z,96067.59
2022-10-06T20:16:14.800Z,96068.50
2022-10-06T20:18:42.209Z,96073.69
2022-10-06T20:21:14.231Z,96070.72
2022-10-06T20:23:41.015Z,96070.09
2022-10-06T20:26:12.066Z,96072.28
2022-10-06T20:28:38.764Z,96071.22
2022-10-06T20:31:05.873Z,96080.25
2022-10-06T20:33:33.349Z,96076.66
2022-10-06T20:36:00.512Z,96075.81
2022-10-06T20:38:47.020Z,96074.50
2022-10-06T20:41:17.578Z,96074.78
2022-10-06T20:43:44.337Z,96072.19
2022-10-06T20:46:11.292Z,96080.38
2022-10-06T20:48:38.770Z,96074.72
2022-10-06T20:51:12.503Z,96074.78
2022-10-06T20:53:39.543Z,96077.28
2022-10-06T20:56:06.534Z,96070.78
2022-10-06T20:58:33.230Z,96072.00
2022-10-06T21:01:06.087Z,96084.22
2022-10-06T21:03:33.675Z,96075.81
2022-10-06T21:06:00.490Z,96068.91
2022-10-06T21:08:27.165Z,96071.03
2022-10-06T21:11:02.141Z,96070.81
2022-10-06T21:13:29.855Z,96072.69
2022-10-06T21:15:57.754Z,96069.66
2022-10-06T21:18:28.232Z,96074.78
2022-10-06T21:20:55.952Z,96067.91
2022-10-06T21:23:22.627Z,96068.06
2022-10-06T21:25:49.427Z,96072.97
2022-10-06T21:28:16.050Z,96073.91
2022-10-06T21:30:44.247Z,96075.69
2022-10-06T21:33:10.840Z,96070.31
2022-10-06T21:35:37.379Z,96070.94
2022-10-06T21:38:04.566Z,96082.38
2022-10-06T21:40:34.704Z,96077.09
2022-10-06T21:43:01.278Z,96081.38
2022-10-06T21:45:32.964Z,96085.31
2022-10-06T21:47:59.869Z,96086.16
2022-10-06T21:50:26.568Z,96077.81
2022-10-06T21:52:53.157Z,96084.00
2022-10-06T21:55:20.481Z,96081.13
2022-10-06T21:57:47.291Z,96082.09
2022-10-06T22:00:14.072Z,96064.41
2022-10-06T22:02:40.890Z,96065.44
2022-10-06T22:05:07.671Z,96066.88
2022-10-06T22:07:34.203Z,96067.63
2022-10-06T22:10:00.796Z,96073.16
2022-10-06T22:12:27.426Z,96057.78
2022-10-06T22:14:54.815Z,96059.34
2022-10-06T22:17:21.501Z,96074.69
2022-10-06T22:19:48.026Z,96072.72
2022-10-06T22:22:14.652Z,96069.25
2022-10-06T22:24:41.198Z,96069.38
2022-10-06T22:27:07.760Z,96064.31
2022-10-06T22:29:34.289Z,96069.16
2022-10-06T22:32:00.930Z,96066.72
2022-10-06T22:34:27.659Z,96059.91
2022-10-06T22:36:54.169Z,96064.03
2022-10-06T22:39:20.825Z,96057.00
2022-10-06T22:41:47.404Z,96060.47
2022-10-06T22:44:14.008Z,96066.88
2022-10-06T22:46:40.901Z,96051.41
2022-10-06T22:49:07.560Z,96055.84
2022-10-06T22:51:34.556Z,96061.38
2022-10-06T22:54:01.467Z,96065.06
2022-10-06T22:56:29.026Z,96063.69
2022-10-06T22:58:59.473Z,96063.22
2022-10-06T23:01:26.648Z,96064.47
2022-10-06T23:03:56.744Z,96056.75
2022-10-06T23:06:23.426Z,96065.84
2022-10-06T23:08:50.020Z,96068.53
2022-10-06T23:11:17.965Z,96069.44
2022-10-06T23:13:44.885Z,96066.69
2022-10-06T23:16:15.466Z,96065.38
2022-10-06T23:18:42.946Z,96071.84
2022-10-06T23:21:23.003Z,96072.47
2022-10-06T23:23:53.422Z,96063.34
2022-10-06T23:26:20.649Z,96063.34
2022-10-06T23:28:51.208Z,96076.31
2022-10-06T23:31:17.889Z,96066.38
2022-10-06T23:33:44.525Z,96066.16
2022-10-06T23:36:12.084Z,96069.59
2022-10-06T23:38:39.125Z,96066.63
2022-10-06T23:41:06.549Z,96072.91
2022-10-06T23:43:33.330Z,96072.66
2022-10-06T23:46:00.086Z,96075.59
2022-10-06T23:48:26.917Z,96078.53
2022-10-06T23:50:56.939Z,96074.63
2022-10-06T23:53:23.487Z,96067.63
2022-10-06T23:55:50.135Z,96080.13
2022-10-06T23:58:16.684Z,96069.78
